KLAR/LAR METAR and TAF weather

Enter ICAO airport designator
Station Type Date Time Source
KLAR METAR 2024/07/13 01:53 UTC NOAA

KLAR 130153Z AUTO 35013KT 10SM CLR 31/M04 A3027 RMK AO2 SLP103 T03061044


Station Type Date Time Source
KLAR Decoded METAR 2024/07/13 01:53 UTC NOAA

LARAMIE REGIONAL AIRPORT, WY, United States (KLAR) 41-19N 105-40W 2216M
Jul 12, 2024 - 09:53 PM EDT / 2024.07.13 0153 UTC
Wind: from the N (350 degrees) at 15 MPH (13 KT):0
Visibility: 10 mile(s):0
Sky conditions: clear
Temperature: 87.1 F (30.6 C)
Dew Point: 24.1 F (-4.4 C)
Relative Humidity: 10%
Pressure (altimeter): 30.27 in. Hg (1025 hPa)
ob: KLAR 130153Z AUTO 35013KT 10SM CLR 31/M04 A3027 RMK AO2 SLP103 T03061044
cycle: 2

Station Type Date Time Source
KLAR TAF 2024/07/13 00:21 UTC NOAA